Date,TemperatureHighF,TemperatureAvgF,TemperatureLowF,DewpointHighF,DewpointAvgF,DewpointLowF,HumidityHigh,HumidityAvg,HumidityLow,PressureMaxIn,PressureMinIn,WindSpeedMaxMPH,WindSpeedAvgMPH,GustSpeedMaxMPH,PrecipitationSumIn
2013-8-1,92,75,62,67,62,56,95,68,32,30.08,29.95,9,4,13,0.00
2013-8-2,88,76,68,69,65,62,88,72,44,29.98,29.86,16,6,21,0.00
2013-8-3,84,74,64,68,59,53,89,62,37,30.17,29.98,13,6,15,0.00
2013-8-4,87,73,60,60,57,52,89,60,32,30.21,30.07,6,3,11,0.00
2013-8-5,82,70,60,69,64,58,93,81,63,30.12,29.84,14,6,20,0.00
2013-8-6,92,77,66,76,69,64,98,79,43,29.93,29.76,13,5,17,0.00
2013-8-7,89,78,68,75,68,62,92,74,44,29.98,29.79,14,6,19,0.00
2013-8-8,85,73,62,66,63,59,91,73,46,30.01,29.93,11,5,15,0.00
2013-8-9,91,76,64,67,64,59,94,69,38,30.10,30.00,6,2,11,0.00
2013-8-10,84,72,62,64,57,52,82,61,37,30.18,30.10,16,5,20,0.00
2013-8-11,89,75,61,66,60,55,81,62,40,30.18,30.02,12,4,16,0.00
2013-8-12,83,73,63,68,63,57,89,70,53,30.07,29.92,11,4,17,0.00
2013-8-13,78,67,59,61,56,50,85,68,46,30.19,30.00,14,6,17,0.00
2013-8-14,82,66,52,56,50,44,93,59,27,30.25,30.14,9,2,13,0.00
2013-8-15,79,66,56,58,53,49,89,66,37,30.21,30.10,11,2,15,0.00
2013-8-16,85,69,54,58,54,49,88,61,32,30.21,30.12,12,4,18,0.00
2013-8-17,84,71,58,60,55,51,94,61,35,30.22,30.13,8,3,14,0.00
2013-8-18,88,72,57,62,57,52,87,62,37,30.22,30.08,10,3,12,0.00
2013-8-19,86,74,61,65,61,58,91,67,43,30.15,30.01,11,4,17,0.00
2013-8-20,89,76,63,68,63,60,89,68,39,30.11,29.99,14,6,17,0.00
2013-8-21,90,77,64,68,65,62,92,68,43,30.10,29.98,15,7,20,0.00
2013-8-22,87,76,66,71,68,63,92,75,55,30.10,30.02,16,5,21,0.00
2013-8-23,92,77,65,72,66,63,96,71,42,30.14,30.04,9,3,16,0.00
2013-8-24,91,77,65,70,66,62,93,72,48,30.21,30.11,11,5,15,0.00
2013-8-25,92,78,65,69,65,62,92,68,38,30.27,30.12,14,6,17,0.00
2013-8-26,95,80,64,71,67,61,92,67,44,30.19,30.00,13,6,17,0.00
2013-8-27,97,82,70,72,67,62,91,64,38,30.05,29.88,16,8,25,0.00
2013-8-28,101,85,71,71,66,62,79,56,33,29.99,29.91,11,6,16,0.00
2013-8-29,98,83,71,75,70,65,94,69,40,30.05,29.93,8,3,11,0.00
2013-8-30,108,87,73,75,71,66,95,65,28,29.96,29.74,11,4,14,0.00
2013-8-31,95,82,72,73,70,67,89,67,46,29.81,29.73,12,5,17,0.00